createdAt,value
2019-02-23T00:00:48.625Z,99.90
2019-02-23T00:03:17.650Z,99.90
2019-02-23T00:05:46.681Z,99.90
2019-02-23T00:08:15.654Z,99.90
2019-02-23T00:10:44.662Z,99.90
2019-02-23T00:13:15.180Z,99.90
2019-02-23T00:15:44.193Z,99.90
2019-02-23T00:18:13.202Z,99.90
2019-02-23T00:20:42.220Z,99.90
2019-02-23T00:23:11.277Z,99.90
2019-02-23T00:25:40.287Z,99.90
2019-02-23T00:28:09.325Z,99.90
2019-02-23T00:30:38.333Z,99.90
2019-02-23T00:33:07.320Z,99.90
2019-02-23T00:35:36.351Z,99.90
2019-02-23T00:38:05.347Z,99.90
2019-02-23T00:40:34.369Z,99.90
2019-02-23T00:43:03.318Z,99.90
2019-02-23T00:45:32.338Z,99.90
2019-02-23T00:48:01.268Z,99.90
2019-02-23T00:50:30.201Z,99.90
2019-02-23T00:52:59.118Z,99.90
2019-02-23T00:55:27.990Z,99.90
2019-02-23T00:57:56.972Z,99.90
2019-02-23T01:00:30.122Z,99.90
2019-02-23T01:02:59.066Z,99.90
2019-02-23T01:05:27.981Z,99.90
2019-02-23T01:07:57.913Z,99.90
2019-02-23T01:10:26.998Z,99.90
2019-02-23T01:12:55.931Z,99.90
2019-02-23T01:15:24.940Z,99.90
2019-02-23T01:17:53.973Z,99.90
2019-02-23T01:20:23.093Z,99.90
2019-02-23T01:22:52.106Z,99.90
2019-02-23T01:25:21.195Z,99.90
2019-02-23T01:27:50.136Z,99.90
2019-02-23T01:30:19.115Z,99.90
2019-02-23T01:32:48.155Z,99.90
2019-02-23T01:35:17.211Z,99.90
2019-02-23T01:37:46.229Z,99.90
2019-02-23T01:40:15.275Z,99.90
2019-02-23T01:42:44.207Z,99.90
2019-02-23T01:45:13.213Z,99.90
2019-02-23T01:47:42.229Z,99.90
2019-02-23T01:50:11.254Z,99.90
2019-02-23T01:52:40.265Z,99.90
2019-02-23T01:55:09.630Z,99.90
2019-02-23T01:57:38.662Z,99.90
2019-02-23T02:00:10.929Z,99.90
2019-02-23T02:02:40.710Z,99.90
2019-02-23T02:05:10.063Z,99.90
2019-02-23T02:07:39.086Z,99.90
2019-02-23T02:10:09.393Z,99.90
2019-02-23T02:12:38.532Z,99.90
2019-02-23T02:15:09.889Z,99.90
2019-02-23T02:17:38.895Z,99.90
2019-02-23T02:20:11.255Z,99.90
2019-02-23T02:22:41.894Z,99.90
2019-02-23T02:25:10.897Z,99.90
2019-02-23T02:27:39.885Z,99.90
2019-02-23T02:30:10.609Z,99.90
2019-02-23T02:32:39.623Z,99.90
2019-02-23T02:35:09.645Z,99.90
2019-02-23T02:37:38.661Z,99.90
2019-02-23T02:40:13.465Z,99.90
2019-02-23T02:42:42.386Z,99.90
2019-02-23T02:45:11.611Z,99.90
2019-02-23T02:47:40.548Z,99.90
2019-02-23T02:50:23.369Z,99.90
2019-02-23T02:52:41.350Z,99.90
2019-02-23T02:55:10.306Z,99.90
2019-02-23T02:57:39.310Z,99.90
2019-02-23T03:00:10.507Z,99.90
2019-02-23T03:02:42.740Z,99.90
2019-02-23T03:05:11.781Z,99.90
2019-02-23T03:07:40.707Z,99.90
2019-02-23T03:10:09.690Z,99.90
2019-02-23T03:12:38.721Z,99.90
2019-02-23T03:15:07.905Z,99.90
2019-02-23T03:17:38.958Z,99.90
2019-02-23T03:20:08.621Z,99.90
2019-02-23T03:22:37.550Z,99.90
2019-02-23T03:25:06.760Z,99.90
2019-02-23T03:27:38.201Z,99.90
2019-02-23T03:30:08.963Z,99.90
2019-02-23T03:32:37.890Z,99.90
2019-02-23T03:35:08.538Z,99.90
2019-02-23T03:37:40.560Z,99.90
2019-02-23T03:40:09.808Z,99.90
2019-02-23T03:42:38.777Z,99.90
2019-02-23T03:45:09.088Z,99.90
2019-02-23T03:47:38.088Z,99.90
2019-02-23T03:50:07.342Z,99.90
2019-02-23T03:52:36.258Z,99.90
2019-02-23T03:55:05.609Z,99.90
2019-02-23T03:57:34.456Z,99.90
2019-02-23T04:00:06.890Z,99.90
2019-02-23T04:02:35.799Z,99.90
2019-02-23T04:05:05.513Z,99.90
2019-02-23T04:07:34.469Z,99.90
2019-02-23T04:10:03.355Z,99.90
2019-02-23T04:12:34.313Z,99.90
2019-02-23T04:15:03.082Z,99.90
2019-02-23T04:17:32.079Z,99.90
2019-02-23T04:20:01.386Z,99.90
2019-02-23T04:22:30.677Z,99.90
2019-02-23T04:24:59.685Z,99.90
2019-02-23T04:27:28.543Z,99.90
2019-02-23T04:29:57.541Z,99.90
2019-02-23T04:32:26.413Z,99.90
2019-02-23T04:35:04.251Z,99.90
2019-02-23T04:37:33.183Z,99.90
2019-02-23T04:40:02.054Z,99.90
2019-02-23T04:42:30.897Z,99.90
2019-02-23T04:44:59.787Z,99.90
2019-02-23T04:47:28.775Z,99.90
2019-02-23T04:49:57.773Z,99.90
2019-02-23T04:52:26.802Z,99.90
2019-02-23T04:54:55.793Z,99.90
2019-02-23T04:57:24.658Z,99.90
2019-02-23T04:59:53.480Z,99.90
2019-02-23T05:02:22.423Z,99.90
2019-02-23T05:04:51.341Z,99.90
2019-02-23T05:07:20.331Z,99.90
2019-02-23T05:09:49.209Z,99.90
2019-02-23T05:12:18.039Z,99.90
2019-02-23T05:14:46.962Z,99.90
2019-02-23T05:17:16.876Z,99.90
2019-02-23T05:19:45.865Z,99.90
2019-02-23T05:22:14.788Z,99.90
2019-02-23T05:24:43.687Z,99.90
2019-02-23T05:27:12.608Z,99.90
2019-02-23T05:29:41.543Z,99.90
2019-02-23T05:32:10.577Z,99.90
2019-02-23T05:34:39.413Z,99.90
2019-02-23T05:37:08.423Z,99.90
2019-02-23T05:39:37.333Z,99.90
2019-02-23T05:42:06.356Z,99.90
2019-02-23T05:44:35.198Z,99.90
2019-02-23T05:47:04.509Z,99.90
2019-02-23T05:49:36.497Z,99.90
2019-02-23T05:52:04.089Z,99.90
2019-02-23T05:54:33.016Z,99.90
2019-02-23T05:57:02.048Z,99.90
2019-02-23T05:59:30.907Z,99.90
2019-02-23T06:01:59.813Z,99.90
2019-02-23T06:04:28.747Z,99.90
2019-02-23T06:06:57.731Z,99.90
2019-02-23T06:09:26.579Z,99.90
2019-02-23T06:11:55.504Z,99.90
2019-02-23T06:14:24.349Z,99.90
2019-02-23T06:16:53.326Z,99.90
2019-02-23T06:19:24.225Z,99.90
2019-02-23T06:21:54.730Z,99.90
2019-02-23T06:24:23.953Z,99.90
2019-02-23T06:26:54.011Z,99.90
2019-02-23T06:29:23.957Z,99.90
2019-02-23T06:31:56.036Z,99.90
2019-02-23T06:34:25.024Z,99.90
2019-02-23T06:36:53.969Z,99.90
2019-02-23T06:39:22.981Z,99.90
2019-02-23T06:41:51.901Z,99.90
2019-02-23T06:44:20.754Z,99.90
2019-02-23T06:46:49.789Z,99.90
2019-02-23T06:49:18.633Z,99.90
2019-02-23T06:51:47.553Z,99.90
2019-02-23T06:54:16.416Z,99.90
2019-02-23T06:56:46.356Z,99.90
2019-02-23T06:59:15.204Z,99.90
2019-02-23T07:01:44.311Z,99.90
2019-02-23T07:04:13.225Z,99.90
2019-02-23T07:06:42.605Z,99.90
2019-02-23T07:09:11.540Z,99.90
2019-02-23T07:11:40.529Z,99.90
2019-02-23T07:14:09.856Z,99.90
2019-02-23T07:16:38.799Z,99.90
2019-02-23T07:19:07.804Z,99.90
2019-02-23T07:21:36.785Z,99.90
2019-02-23T07:24:05.803Z,99.90
2019-02-23T07:26:35.721Z,99.90
2019-02-23T07:29:04.763Z,99.90
2019-02-23T07:31:34.766Z,99.90
2019-02-23T07:34:04.152Z,99.90
2019-02-23T07:36:33.117Z,99.90
2019-02-23T07:39:02.215Z,99.90
2019-02-23T07:41:31.313Z,99.90
2019-02-23T07:44:00.400Z,99.90
2019-02-23T07:46:29.494Z,99.90
2019-02-23T07:48:58.468Z,99.90
2019-02-23T07:51:27.497Z,99.90
2019-02-23T07:53:56.401Z,99.90
2019-02-23T07:56:25.619Z,99.90
2019-02-23T07:58:54.689Z,99.90
2019-02-23T08:01:23.785Z,99.90
2019-02-23T08:03:52.837Z,99.90
2019-02-23T08:06:21.879Z,99.90
2019-02-23T08:08:50.820Z,99.90
2019-02-23T08:11:19.917Z,99.90
2019-02-23T08:13:48.920Z,99.90
2019-02-23T08:16:17.970Z,99.90
2019-02-23T08:18:47.058Z,99.90
2019-02-23T08:21:16.052Z,99.90
2019-02-23T08:23:44.937Z,99.90
2019-02-23T08:26:14.112Z,99.90
2019-02-23T08:28:43.082Z,99.90
2019-02-23T08:31:13.410Z,99.90
2019-02-23T08:33:42.773Z,99.90
2019-02-23T08:36:11.874Z,99.90
2019-02-23T08:38:43.257Z,99.90
2019-02-23T08:41:18.340Z,99.90
2019-02-23T08:43:47.414Z,99.90
2019-02-23T08:46:39.605Z,99.90
2019-02-23T08:49:14.661Z,99.90
2019-02-23T08:51:43.609Z,99.90
2019-02-23T08:54:14.338Z,99.90
2019-02-23T08:56:44.389Z,99.90
2019-02-23T08:59:18.263Z,99.90
2019-02-23T09:02:05.720Z,99.90
2019-02-23T09:04:34.866Z,99.90
2019-02-23T09:07:03.897Z,99.90
2019-02-23T09:09:39.275Z,99.90
2019-02-23T09:12:08.319Z,99.90
2019-02-23T09:14:37.355Z,99.90
2019-02-23T09:17:09.636Z,99.90
2019-02-23T09:19:40.989Z,99.90
2019-02-23T09:22:31.694Z,99.90
2019-02-23T09:25:09.809Z,99.90
2019-02-23T09:27:42.438Z,99.90
2019-02-23T09:30:12.793Z,99.90
2019-02-23T09:32:41.854Z,99.90
2019-02-23T09:35:11.115Z,99.90
2019-02-23T09:37:41.280Z,99.90
2019-02-23T09:40:10.509Z,99.90
2019-02-23T09:42:39.758Z,99.90
2019-02-23T09:45:11.353Z,99.90
2019-02-23T09:47:40.420Z,99.90
2019-02-23T09:50:09.464Z,99.90
2019-02-23T09:52:40.106Z,99.90
2019-02-23T09:55:28.954Z,99.90
2019-02-23T09:57:59.288Z,99.90
2019-02-23T10:00:29.674Z,99.90
2019-02-23T10:03:10.941Z,99.90
2019-02-23T10:05:48.968Z,99.90
2019-02-23T10:08:19.119Z,99.90
2019-02-23T10:11:06.581Z,99.90
2019-02-23T10:13:36.726Z,99.90
2019-02-23T10:16:09.292Z,99.90
2019-02-23T10:18:38.602Z,99.90
2019-02-23T10:21:07.686Z,99.90
2019-02-23T10:23:36.882Z,99.90
2019-02-23T10:26:05.839Z,99.90
2019-02-23T10:28:34.870Z,99.90
2019-02-23T10:31:05.957Z,99.90
2019-02-23T10:33:38.412Z,99.90
2019-02-23T10:36:07.480Z,99.90
2019-02-23T10:38:36.553Z,99.90
2019-02-23T10:41:05.547Z,99.90
2019-02-23T10:43:34.697Z,99.90
2019-02-23T10:46:03.634Z,99.90
2019-02-23T10:48:33.581Z,99.90
2019-02-23T10:51:03.629Z,99.90
2019-02-23T10:53:33.665Z,99.90
2019-02-23T10:56:02.702Z,99.90
2019-02-23T10:58:33.818Z,99.90
2019-02-23T11:01:02.828Z,99.90
2019-02-23T11:03:31.877Z,99.90
2019-02-23T11:06:15.238Z,99.90
2019-02-23T11:08:46.288Z,99.90
2019-02-23T11:11:15.302Z,99.30
2019-02-23T11:13:50.219Z,98.40
2019-02-23T11:16:19.284Z,98.30
2019-02-23T11:18:48.299Z,98.20
2019-02-23T11:21:18.399Z,98.20
2019-02-23T11:23:47.501Z,97.60
2019-02-23T11:26:18.675Z,98.30
2019-02-23T11:28:47.694Z,95.70
2019-02-23T11:31:16.621Z,94.50
2019-02-23T11:33:45.678Z,92.40
2019-02-23T11:36:14.709Z,93.60
2019-02-23T11:38:43.729Z,93.90
2019-02-23T11:41:18.554Z,91.60
2019-02-23T11:43:50.664Z,92.20
2019-02-23T11:46:25.763Z,92.30
2019-02-23T11:48:54.709Z,91.90
2019-02-23T11:51:23.829Z,92.10
2019-02-23T11:53:55.268Z,91.30
2019-02-23T11:56:23.777Z,90.40
2019-02-23T11:58:52.914Z,88.80
2019-02-23T12:01:21.930Z,87.10
2019-02-23T12:03:53.226Z,85.80
2019-02-23T12:06:22.237Z,84.80
2019-02-23T12:08:53.385Z,83.40
2019-02-23T12:11:22.616Z,85.50
2019-02-23T12:13:51.726Z,82.20
2019-02-23T12:16:20.657Z,80.80
2019-02-23T12:18:50.930Z,81.40
2019-02-23T12:21:19.897Z,80.30
2019-02-23T12:23:48.888Z,78.20
2019-02-23T12:26:19.015Z,75.90
2019-02-23T12:28:51.221Z,74.50
2019-02-23T12:31:20.194Z,73.40
2019-02-23T12:33:51.287Z,74.10
2019-02-23T12:36:21.333Z,70.40
2019-02-23T12:38:50.478Z,70.20
2019-02-23T12:41:19.666Z,69.50
2019-02-23T12:43:48.708Z,66.10
2019-02-23T12:46:17.592Z,67.10
2019-02-23T12:48:46.557Z,65.70
2019-02-23T12:51:15.586Z,63.00
2019-02-23T12:53:44.438Z,63.20
2019-02-23T12:56:13.445Z,62.20
2019-02-23T12:58:42.481Z,62.10
2019-02-23T13:01:11.489Z,61.70
2019-02-23T13:03:40.532Z,62.80
2019-02-23T13:06:09.540Z,62.50
2019-02-23T13:09:24.770Z,63.90
2019-02-23T13:12:15.955Z,62.10
2019-02-23T13:14:58.577Z,60.70
2019-02-23T13:17:58.025Z,58.80
2019-02-23T13:21:22.516Z,57.30
2019-02-23T13:24:28.233Z,60.10
2019-02-23T13:27:32.827Z,61.60
2019-02-23T13:30:18.230Z,60.70
2019-02-23T13:33:14.841Z,59.30
2019-02-23T13:36:09.766Z,59.40
2019-02-23T13:39:20.426Z,59.50
2019-02-23T13:42:14.706Z,57.10
2019-02-23T13:45:22.557Z,57.50
2019-02-23T13:48:24.990Z,55.60
2019-02-23T13:51:10.776Z,55.50
2019-02-23T13:54:16.394Z,54.70
2019-02-23T13:57:44.680Z,58.40
2019-02-23T14:00:56.268Z,57.80
2019-02-23T14:03:58.542Z,58.90
2019-02-23T14:07:17.596Z,59.60
2019-02-23T14:10:21.866Z,60.00
2019-02-23T14:13:32.057Z,57.70
2019-02-23T14:16:13.295Z,58.30
2019-02-23T14:19:28.034Z,59.10
2019-02-23T14:22:28.910Z,58.10
2019-02-23T14:25:26.553Z,56.30
2019-02-23T14:28:33.993Z,57.10
2019-02-23T14:31:09.195Z,58.90
2019-02-23T14:34:15.186Z,57.60
2019-02-23T14:37:07.193Z,57.30
2019-02-23T14:40:03.441Z,56.20
2019-02-23T14:43:01.319Z,56.40
2019-02-23T14:46:03.239Z,54.40
2019-02-23T14:49:11.449Z,57.00
2019-02-23T14:52:22.341Z,56.70
2019-02-23T14:55:30.653Z,54.50
2019-02-23T14:58:24.369Z,54.40
2019-02-23T15:01:34.818Z,54.60
2019-02-23T15:05:06.202Z,54.20
2019-02-23T15:08:19.442Z,56.50
2019-02-23T15:11:32.299Z,54.90
2019-02-23T15:14:37.173Z,53.40
2019-02-23T15:17:47.927Z,53.20
2019-02-23T15:20:44.895Z,52.80
2019-02-23T15:24:13.379Z,53.80
2019-02-23T15:27:19.114Z,53.20
2019-02-23T15:30:20.416Z,54.80
2019-02-23T15:33:33.818Z,52.80
2019-02-23T15:36:32.572Z,54.00
2019-02-23T15:39:28.358Z,55.20
2019-02-23T15:42:41.219Z,52.40
2019-02-23T15:46:09.455Z,54.30
2019-02-23T15:49:20.539Z,55.90
2019-02-23T15:51:49.566Z,57.00
2019-02-23T15:54:18.618Z,58.20
2019-02-23T15:56:47.611Z,56.00
2019-02-23T15:59:16.782Z,56.80
2019-02-23T16:01:45.931Z,56.90
2019-02-23T16:04:14.882Z,57.60
2019-02-23T16:06:43.962Z,56.80
2019-02-23T16:09:13.131Z,58.10
2019-02-23T16:11:45.086Z,57.80
2019-02-23T16:14:12.889Z,59.30
2019-02-23T16:16:41.898Z,58.20
2019-02-23T16:19:10.927Z,58.00
2019-02-23T16:21:39.950Z,60.70
2019-02-23T16:24:08.999Z,59.00
2019-02-23T16:26:38.020Z,60.30
2019-02-23T16:29:07.093Z,60.20
2019-02-23T16:31:36.118Z,60.00
2019-02-23T16:34:07.347Z,59.50
2019-02-23T16:36:35.845Z,61.60
2019-02-23T16:39:12.758Z,59.90
2019-02-23T16:41:41.795Z,60.10
2019-02-23T16:44:10.857Z,59.80
2019-02-23T16:46:58.998Z,63.40
2019-02-23T16:49:28.260Z,60.30
2019-02-23T16:51:58.422Z,59.50
2019-02-23T16:54:27.581Z,59.70
2019-02-23T16:56:56.678Z,61.20
2019-02-23T16:59:25.663Z,62.90
2019-02-23T17:01:54.829Z,62.10
2019-02-23T17:04:24.976Z,62.10
2019-02-23T17:06:54.020Z,61.50
2019-02-23T17:09:25.449Z,63.40
2019-02-23T17:11:54.947Z,65.60
2019-02-23T17:14:24.980Z,66.90
2019-02-23T17:16:55.098Z,66.50
2019-02-23T17:19:24.088Z,62.20
2019-02-23T17:21:55.207Z,66.10
2019-02-23T17:24:30.142Z,63.50
2019-02-23T17:26:59.214Z,64.70
2019-02-23T17:29:29.205Z,65.20
2019-02-23T17:31:58.350Z,65.30
2019-02-23T17:34:28.458Z,64.90
2019-02-23T17:36:58.465Z,67.10
2019-02-23T17:39:27.478Z,67.00
2019-02-23T17:41:57.582Z,66.60
2019-02-23T17:44:26.585Z,63.80
2019-02-23T17:46:55.649Z,66.30
2019-02-23T17:49:24.605Z,66.10
2019-02-23T17:52:02.743Z,67.50
2019-02-23T17:54:31.854Z,68.60
2019-02-23T17:57:03.718Z,67.60
2019-02-23T17:59:33.816Z,70.30
2019-02-23T18:02:02.877Z,69.10
2019-02-23T18:04:37.029Z,69.80
2019-02-23T18:07:05.998Z,68.40
2019-02-23T18:09:35.148Z,68.80
2019-02-23T18:12:04.238Z,70.20
2019-02-23T18:14:35.558Z,69.20
2019-02-23T18:17:04.578Z,67.60
2019-02-23T18:19:33.574Z,67.90
2019-02-23T18:22:10.589Z,68.40
2019-02-23T18:24:44.251Z,68.60
2019-02-23T18:27:28.436Z,68.80
2019-02-23T18:29:58.439Z,70.70
2019-02-23T18:32:28.483Z,69.40
2019-02-23T18:35:00.488Z,68.50
2019-02-23T18:37:29.896Z,69.40
2019-02-23T18:40:03.453Z,70.20
2019-02-23T18:42:32.626Z,68.70
2019-02-23T18:45:09.786Z,69.60
2019-02-23T18:47:57.549Z,71.20
2019-02-23T18:50:26.586Z,71.60
2019-02-23T18:53:01.774Z,68.40
2019-02-23T18:55:41.070Z,69.10
2019-02-23T18:58:17.905Z,70.90
2019-02-23T19:00:53.819Z,72.20
2019-02-23T19:03:29.604Z,71.00
2019-02-23T19:05:59.657Z,70.40
2019-02-23T19:08:28.777Z,73.80
2019-02-23T19:11:21.674Z,70.10
2019-02-23T19:13:58.542Z,69.50
2019-02-23T19:16:27.547Z,71.60
2019-02-23T19:18:56.725Z,69.80
2019-02-23T19:21:40.859Z,68.40
2019-02-23T19:24:09.958Z,66.30
2019-02-23T19:26:39.973Z,67.50
2019-02-23T19:29:10.005Z,69.40
2019-02-23T19:31:39.370Z,67.50
2019-02-23T19:34:08.519Z,68.10
2019-02-23T19:36:37.538Z,70.50
2019-02-23T19:39:07.191Z,68.40
2019-02-23T19:41:36.287Z,68.70
2019-02-23T19:44:05.802Z,69.40
2019-02-23T19:46:38.280Z,69.00
2019-02-23T19:49:07.329Z,68.70
2019-02-23T19:51:42.402Z,70.60
2019-02-23T19:54:13.843Z,70.90
2019-02-23T19:56:46.749Z,69.90
2019-02-23T19:59:14.711Z,71.30
2019-02-23T20:01:44.789Z,69.60
2019-02-23T20:04:14.830Z,71.70
2019-02-23T20:06:44.951Z,70.80
2019-02-23T20:09:18.097Z,70.60
2019-02-23T20:11:48.375Z,71.30
2019-02-23T20:14:23.525Z,70.50
2019-02-23T20:16:53.593Z,70.60
2019-02-23T20:19:23.425Z,70.50
2019-02-23T20:21:55.816Z,70.70
2019-02-23T20:24:27.938Z,69.90
2019-02-23T20:26:59.002Z,70.40
2019-02-23T20:29:29.098Z,71.30
2019-02-23T20:31:59.083Z,70.10
2019-02-23T20:34:34.034Z,70.90
2019-02-23T20:37:03.081Z,70.50
2019-02-23T20:39:32.118Z,69.70
2019-02-23T20:42:08.186Z,69.80
2019-02-23T20:44:40.721Z,69.70
2019-02-23T20:47:09.965Z,71.30
2019-02-23T20:49:38.898Z,70.80
2019-02-23T20:52:08.917Z,71.30
2019-02-23T20:54:37.998Z,71.10
2019-02-23T20:57:13.720Z,69.90
2019-02-23T20:59:38.933Z,71.70
2019-02-23T21:02:14.002Z,71.10
2019-02-23T21:04:43.045Z,71.50
2019-02-23T21:07:12.070Z,69.40
2019-02-23T21:09:41.222Z,70.60
2019-02-23T21:12:10.282Z,70.30
2019-02-23T21:14:39.313Z,69.80
2019-02-23T21:17:08.180Z,71.00
2019-02-23T21:19:38.322Z,69.00
2019-02-23T21:22:07.195Z,68.90
2019-02-23T21:24:36.089Z,69.00
2019-02-23T21:27:12.830Z,69.70
2019-02-23T21:29:38.762Z,70.60
2019-02-23T21:32:08.789Z,70.40
2019-02-23T21:34:43.929Z,71.10
2019-02-23T21:37:12.904Z,71.60
2019-02-23T21:39:41.898Z,71.40
2019-02-23T21:42:10.944Z,70.30
2019-02-23T21:44:40.084Z,69.20
2019-02-23T21:47:15.016Z,69.60
2019-02-23T21:49:46.073Z,69.20
2019-02-23T21:52:21.238Z,69.40
2019-02-23T21:54:53.559Z,70.90
2019-02-23T21:57:22.640Z,69.90
2019-02-23T21:59:51.747Z,70.20
2019-02-23T22:02:20.850Z,69.00
2019-02-23T22:04:49.978Z,69.00
2019-02-23T22:07:29.130Z,70.20
2019-02-23T22:09:58.275Z,69.50
2019-02-23T22:12:27.297Z,69.70
2019-02-23T22:14:56.268Z,68.60
2019-02-23T22:17:27.422Z,68.70
2019-02-23T22:19:57.538Z,68.90
2019-02-23T22:22:26.661Z,68.20
2019-02-23T22:24:56.753Z,69.20
2019-02-23T22:27:31.267Z,68.10
2019-02-23T22:29:58.710Z,67.00
2019-02-23T22:32:27.735Z,67.80
2019-02-23T22:34:56.786Z,67.20
2019-02-23T22:37:26.931Z,68.10
2019-02-23T22:40:03.063Z,68.60
2019-02-23T22:42:32.189Z,69.20
2019-02-23T22:45:01.283Z,68.70
2019-02-23T22:47:32.442Z,68.90
2019-02-23T22:50:03.557Z,68.70
2019-02-23T22:52:33.686Z,68.20
2019-02-23T22:55:04.855Z,67.40
2019-02-23T22:57:40.603Z,66.70
2019-02-23T23:00:06.015Z,67.10
2019-02-23T23:02:35.082Z,67.20
2019-02-23T23:05:04.370Z,68.40
2019-02-23T23:07:36.561Z,68.20
2019-02-23T23:10:11.789Z,66.60
2019-02-23T23:12:43.029Z,64.30
2019-02-23T23:15:13.176Z,64.50
2019-02-23T23:17:45.453Z,63.90
2019-02-23T23:20:16.567Z,64.70
2019-02-23T23:22:47.848Z,64.40
2019-02-23T23:25:16.835Z,64.40
2019-02-23T23:27:49.485Z,63.50
2019-02-23T23:30:24.635Z,63.00
2019-02-23T23:32:55.759Z,64.10
2019-02-23T23:35:24.847Z,62.90
2019-02-23T23:37:54.964Z,64.00
2019-02-23T23:40:31.976Z,63.50
2019-02-23T23:43:01.982Z,64.40
2019-02-23T23:45:30.992Z,64.70
2019-02-23T23:48:03.093Z,65.00
2019-02-23T23:50:32.830Z,64.40
2019-02-23T23:53:09.718Z,64.80
2019-02-23T23:55:38.766Z,64.60
2019-02-23T23:58:07.898Z,63.90
